sensor_id;sensor_type;location;lat;lon;timestamp;temperature;humidity
3488;DHT22;38546;48.170;11.724;2023-05-10T00:01:01;13.80;99.90
3488;DHT22;38546;48.170;11.724;2023-05-10T00:03:51;13.90;99.90
3488;DHT22;38546;48.170;11.724;2023-05-10T00:06:40;13.90;99.90
3488;DHT22;38546;48.170;11.724;2023-05-10T00:09:30;13.70;99.90
3488;DHT22;38546;48.170;11.724;2023-05-10T00:12:19;13.80;99.90
3488;DHT22;38546;48.170;11.724;2023-05-10T00:15:09;13.70;99.90
3488;DHT22;38546;48.170;11.724;2023-05-10T00:17:58;13.80;99.90
3488;DHT22;38546;48.170;11.724;2023-05-10T00:20:48;13.70;99.90
3488;DHT22;38546;48.170;11.724;2023-05-10T00:23:37;13.70;99.90
3488;DHT22;38546;48.170;11.724;2023-05-10T00:26:27;13.70;99.90
3488;DHT22;38546;48.170;11.724;2023-05-10T00:29:16;13.80;99.90
3488;DHT22;38546;48.170;11.724;2023-05-10T00:32:06;13.70;99.90
3488;DHT22;38546;48.170;11.724;2023-05-10T00:34:55;13.70;99.90
3488;DHT22;38546;48.170;11.724;2023-05-10T00:37:45;13.70;99.90
3488;DHT22;38546;48.170;11.724;2023-05-10T00:40:35;14.00;99.90
3488;DHT22;38546;48.170;11.724;2023-05-10T00:43:25;13.80;99.90
3488;DHT22;38546;48.170;11.724;2023-05-10T00:46:15;13.70;99.90
3488;DHT22;38546;48.170;11.724;2023-05-10T00:49:05;13.80;99.90
3488;DHT22;38546;48.170;11.724;2023-05-10T00:51:54;13.60;99.90
3488;DHT22;38546;48.170;11.724;2023-05-10T00:54:44;13.60;99.90
3488;DHT22;38546;48.170;11.724;2023-05-10T00:57:33;13.60;99.90
3488;DHT22;38546;48.170;11.724;2023-05-10T01:00:23;13.60;99.90
3488;DHT22;38546;48.170;11.724;2023-05-10T01:03:12;13.70;99.90
3488;DHT22;38546;48.170;11.724;2023-05-10T01:06:02;13.70;99.90
3488;DHT22;38546;48.170;11.724;2023-05-10T01:08:52;13.60;99.90
3488;DHT22;38546;48.170;11.724;2023-05-10T01:11:41;13.70;99.90
3488;DHT22;38546;48.170;11.724;2023-05-10T01:14:30;13.80;99.90
3488;DHT22;38546;48.170;11.724;2023-05-10T01:17:19;13.70;99.90
3488;DHT22;38546;48.170;11.724;2023-05-10T01:20:11;13.60;99.90
3488;DHT22;38546;48.170;11.724;2023-05-10T01:30:01;13.60;99.90
3488;DHT22;38546;48.170;11.724;2023-05-10T01:33:11;13.60;99.90
3488;DHT22;38546;48.170;11.724;2023-05-10T01:37:20;13.60;99.90
3488;DHT22;38546;48.170;11.724;2023-05-10T01:40:19;13.60;99.90
3488;DHT22;38546;48.170;11.724;2023-05-10T01:43:27;13.50;99.90
3488;DHT22;38546;48.170;11.724;2023-05-10T01:46:24;13.50;99.90
3488;DHT22;38546;48.170;11.724;2023-05-10T01:49:31;13.40;99.90
3488;DHT22;38546;48.170;11.724;2023-05-10T01:52:26;13.40;99.90
3488;DHT22;38546;48.170;11.724;2023-05-10T01:55:21;13.40;99.90
3488;DHT22;38546;48.170;11.724;2023-05-10T01:58:19;13.50;99.90
3488;DHT22;38546;48.170;11.724;2023-05-10T02:01:11;13.50;99.90
3488;DHT22;38546;48.170;11.724;2023-05-10T02:04:02;13.50;99.90
3488;DHT22;38546;48.170;11.724;2023-05-10T02:06:53;13.40;99.90
3488;DHT22;38546;48.170;11.724;2023-05-10T02:09:45;13.40;99.90
3488;DHT22;38546;48.170;11.724;2023-05-10T02:12:42;13.40;99.90
3488;DHT22;38546;48.170;11.724;2023-05-10T02:15:33;13.30;99.90
3488;DHT22;38546;48.170;11.724;2023-05-10T02:18:24;13.20;99.90
3488;DHT22;38546;48.170;11.724;2023-05-10T02:21:15;13.20;99.90
3488;DHT22;38546;48.170;11.724;2023-05-10T02:24:06;13.30;99.90
3488;DHT22;38546;48.170;11.724;2023-05-10T02:26:58;13.30;99.90
3488;DHT22;38546;48.170;11.724;2023-05-10T02:29:48;13.20;99.90
3488;DHT22;38546;48.170;11.724;2023-05-10T02:32:39;13.30;99.90
3488;DHT22;38546;48.170;11.724;2023-05-10T02:35:29;13.20;99.90
3488;DHT22;38546;48.170;11.724;2023-05-10T02:38:20;13.20;99.90
3488;DHT22;38546;48.170;11.724;2023-05-10T02:41:11;13.20;99.90
3488;DHT22;38546;48.170;11.724;2023-05-10T02:44:01;13.20;99.90
3488;DHT22;38546;48.170;11.724;2023-05-10T02:46:51;13.20;99.90
3488;DHT22;38546;48.170;11.724;2023-05-10T02:49:41;13.20;99.90
3488;DHT22;38546;48.170;11.724;2023-05-10T02:52:39;13.20;99.90
3488;DHT22;38546;48.170;11.724;2023-05-10T02:55:36;13.20;99.90
3488;DHT22;38546;48.170;11.724;2023-05-10T02:58:27;13.20;99.90
3488;DHT22;38546;48.170;11.724;2023-05-10T03:01:16;13.20;99.90
3488;DHT22;38546;48.170;11.724;2023-05-10T03:04:06;13.30;99.90
3488;DHT22;38546;48.170;11.724;2023-05-10T03:06:56;13.30;99.90
3488;DHT22;38546;48.170;11.724;2023-05-10T03:09:45;13.30;99.90
3488;DHT22;38546;48.170;11.724;2023-05-10T03:12:48;13.30;99.90
3488;DHT22;38546;48.170;11.724;2023-05-10T03:16:35;13.40;99.90
3488;DHT22;38546;48.170;11.724;2023-05-10T03:19:32;13.30;99.90
3488;DHT22;38546;48.170;11.724;2023-05-10T03:22:51;13.30;99.90
3488;DHT22;38546;48.170;11.724;2023-05-10T03:25:47;13.40;99.90
3488;DHT22;38546;48.170;11.724;2023-05-10T03:28:37;13.30;99.90
3488;DHT22;38546;48.170;11.724;2023-05-10T03:31:27;13.30;99.90
3488;DHT22;38546;48.170;11.724;2023-05-10T03:34:22;13.40;99.90
3488;DHT22;38546;48.170;11.724;2023-05-10T03:37:12;13.40;99.90
3488;DHT22;38546;48.170;11.724;2023-05-10T03:40:02;13.40;99.90
3488;DHT22;38546;48.170;11.724;2023-05-10T03:42:51;13.50;99.90
3488;DHT22;38546;48.170;11.724;2023-05-10T03:45:41;13.40;99.90
3488;DHT22;38546;48.170;11.724;2023-05-10T03:48:30;13.40;99.90
3488;DHT22;38546;48.170;11.724;2023-05-10T03:51:20;13.40;99.90
3488;DHT22;38546;48.170;11.724;2023-05-10T03:54:10;13.30;99.90
3488;DHT22;38546;48.170;11.724;2023-05-10T03:57:00;13.30;99.90
3488;DHT22;38546;48.170;11.724;2023-05-10T03:59:49;13.40;99.90
3488;DHT22;38546;48.170;11.724;2023-05-10T04:02:38;13.30;99.90
3488;DHT22;38546;48.170;11.724;2023-05-10T04:05:28;13.20;99.90
3488;DHT22;38546;48.170;11.724;2023-05-10T04:08:17;13.30;99.90
3488;DHT22;38546;48.170;11.724;2023-05-10T04:11:07;13.30;99.90
3488;DHT22;38546;48.170;11.724;2023-05-10T04:13:57;13.50;99.90
3488;DHT22;38546;48.170;11.724;2023-05-10T04:16:47;13.30;99.90
3488;DHT22;38546;48.170;11.724;2023-05-10T04:19:36;13.40;99.90
3488;DHT22;38546;48.170;11.724;2023-05-10T04:22:25;13.30;99.90
3488;DHT22;38546;48.170;11.724;2023-05-10T04:25:15;13.30;99.90
3488;DHT22;38546;48.170;11.724;2023-05-10T04:28:04;13.30;99.90
3488;DHT22;38546;48.170;11.724;2023-05-10T04:31:01;13.30;99.90
3488;DHT22;38546;48.170;11.724;2023-05-10T04:33:54;13.40;99.90
3488;DHT22;38546;48.170;11.724;2023-05-10T04:36:42;13.30;99.90
3488;DHT22;38546;48.170;11.724;2023-05-10T04:39:31;13.30;99.90
3488;DHT22;38546;48.170;11.724;2023-05-10T04:42:21;13.30;99.90
3488;DHT22;38546;48.170;11.724;2023-05-10T04:45:10;13.40;99.90
3488;DHT22;38546;48.170;11.724;2023-05-10T04:47:59;13.30;99.90
3488;DHT22;38546;48.170;11.724;2023-05-10T04:50:49;13.50;99.90
3488;DHT22;38546;48.170;11.724;2023-05-10T04:53:38;13.50;99.90
3488;DHT22;38546;48.170;11.724;2023-05-10T04:56:27;13.30;99.90
3488;DHT22;38546;48.170;11.724;2023-05-10T04:59:16;13.40;99.90
3488;DHT22;38546;48.170;11.724;2023-05-10T05:02:06;13.50;99.90
3488;DHT22;38546;48.170;11.724;2023-05-10T05:04:56;13.40;99.90
3488;DHT22;38546;48.170;11.724;2023-05-10T05:07:46;13.50;99.90
3488;DHT22;38546;48.170;11.724;2023-05-10T05:10:36;13.50;99.90
3488;DHT22;38546;48.170;11.724;2023-05-10T05:13:24;13.30;99.90
3488;DHT22;38546;48.170;11.724;2023-05-10T05:16:14;13.30;99.90
3488;DHT22;38546;48.170;11.724;2023-05-10T05:19:03;13.40;99.90
3488;DHT22;38546;48.170;11.724;2023-05-10T05:21:53;13.20;99.90
3488;DHT22;38546;48.170;11.724;2023-05-10T05:24:43;13.30;99.90
3488;DHT22;38546;48.170;11.724;2023-05-10T05:27:32;13.20;99.90
3488;DHT22;38546;48.170;11.724;2023-05-10T05:30:22;13.20;99.90
3488;DHT22;38546;48.170;11.724;2023-05-10T05:33:10;13.30;99.90
3488;DHT22;38546;48.170;11.724;2023-05-10T05:36:01;13.10;99.90
3488;DHT22;38546;48.170;11.724;2023-05-10T05:38:51;12.90;99.90
3488;DHT22;38546;48.170;11.724;2023-05-10T05:41:41;12.80;99.90
3488;DHT22;38546;48.170;11.724;2023-05-10T05:44:30;12.80;99.90
3488;DHT22;38546;48.170;11.724;2023-05-10T05:47:19;12.60;99.90
3488;DHT22;38546;48.170;11.724;2023-05-10T05:50:09;12.60;99.90
3488;DHT22;38546;48.170;11.724;2023-05-10T05:52:58;12.60;99.90
3488;DHT22;38546;48.170;11.724;2023-05-10T05:55:55;12.50;99.90
3488;DHT22;38546;48.170;11.724;2023-05-10T05:58:46;12.60;99.90
3488;DHT22;38546;48.170;11.724;2023-05-10T06:01:35;12.40;99.90
3488;DHT22;38546;48.170;11.724;2023-05-10T06:04:24;12.30;99.90
3488;DHT22;38546;48.170;11.724;2023-05-10T06:07:14;12.20;99.90
3488;DHT22;38546;48.170;11.724;2023-05-10T06:10:04;12.40;99.90
3488;DHT22;38546;48.170;11.724;2023-05-10T06:12:54;12.40;99.90
3488;DHT22;38546;48.170;11.724;2023-05-10T06:15:43;12.40;99.90
3488;DHT22;38546;48.170;11.724;2023-05-10T06:18:32;12.40;99.90
3488;DHT22;38546;48.170;11.724;2023-05-10T06:21:22;12.30;99.90
3488;DHT22;38546;48.170;11.724;2023-05-10T06:24:11;12.30;99.90
3488;DHT22;38546;48.170;11.724;2023-05-10T06:27:01;12.30;99.90
3488;DHT22;38546;48.170;11.724;2023-05-10T06:29:50;12.30;99.90
3488;DHT22;38546;48.170;11.724;2023-05-10T06:32:40;12.40;99.90
3488;DHT22;38546;48.170;11.724;2023-05-10T06:35:30;12.50;99.90
3488;DHT22;38546;48.170;11.724;2023-05-10T06:38:21;12.50;99.90
3488;DHT22;38546;48.170;11.724;2023-05-10T06:41:10;12.60;99.90
3488;DHT22;38546;48.170;11.724;2023-05-10T06:43:59;12.60;99.90
3488;DHT22;38546;48.170;11.724;2023-05-10T06:46:48;12.60;99.90
3488;DHT22;38546;48.170;11.724;2023-05-10T06:49:38;12.70;99.90
3488;DHT22;38546;48.170;11.724;2023-05-10T06:52:28;13.00;99.90
3488;DHT22;38546;48.170;11.724;2023-05-10T06:55:17;13.10;99.90
3488;DHT22;38546;48.170;11.724;2023-05-10T06:58:07;13.20;99.90
3488;DHT22;38546;48.170;11.724;2023-05-10T07:01:02;13.10;99.90
3488;DHT22;38546;48.170;11.724;2023-05-10T07:03:52;13.30;99.90
3488;DHT22;38546;48.170;11.724;2023-05-10T07:06:41;13.20;99.90
3488;DHT22;38546;48.170;11.724;2023-05-10T07:09:31;13.30;99.90
3488;DHT22;38546;48.170;11.724;2023-05-10T07:12:21;13.30;99.90
3488;DHT22;38546;48.170;11.724;2023-05-10T07:15:10;13.50;99.90
3488;DHT22;38546;48.170;11.724;2023-05-10T07:17:59;13.60;99.90
3488;DHT22;38546;48.170;11.724;2023-05-10T07:20:48;13.50;99.90
3488;DHT22;38546;48.170;11.724;2023-05-10T07:23:37;13.60;99.90
3488;DHT22;38546;48.170;11.724;2023-05-10T07:26:26;13.90;99.90
3488;DHT22;38546;48.170;11.724;2023-05-10T07:29:16;14.00;99.90
3488;DHT22;38546;48.170;11.724;2023-05-10T07:32:05;14.20;99.90
3488;DHT22;38546;48.170;11.724;2023-05-10T07:34:55;14.30;99.90
3488;DHT22;38546;48.170;11.724;2023-05-10T07:37:44;14.20;99.90
3488;DHT22;38546;48.170;11.724;2023-05-10T07:40:33;14.40;99.90
3488;DHT22;38546;48.170;11.724;2023-05-10T07:43:23;14.40;99.90
3488;DHT22;38546;48.170;11.724;2023-05-10T07:46:12;14.50;99.90
3488;DHT22;38546;48.170;11.724;2023-05-10T07:49:02;14.40;99.90
3488;DHT22;38546;48.170;11.724;2023-05-10T07:51:51;14.40;99.90
3488;DHT22;38546;48.170;11.724;2023-05-10T07:54:40;14.40;99.90
3488;DHT22;38546;48.170;11.724;2023-05-10T07:57:29;14.40;99.90
3488;DHT22;38546;48.170;11.724;2023-05-10T08:00:20;14.50;99.90
3488;DHT22;38546;48.170;11.724;2023-05-10T08:03:09;14.60;99.90
3488;DHT22;38546;48.170;11.724;2023-05-10T08:05:58;14.90;99.90
3488;DHT22;38546;48.170;11.724;2023-05-10T08:08:48;15.00;99.90
3488;DHT22;38546;48.170;11.724;2023-05-10T08:11:39;15.10;99.90
3488;DHT22;38546;48.170;11.724;2023-05-10T08:14:29;15.00;99.90
3488;DHT22;38546;48.170;11.724;2023-05-10T08:17:18;15.10;99.90
3488;DHT22;38546;48.170;11.724;2023-05-10T08:20:08;15.20;99.90
3488;DHT22;38546;48.170;11.724;2023-05-10T08:22:58;15.20;99.90
3488;DHT22;38546;48.170;11.724;2023-05-10T08:25:47;15.50;99.90
3488;DHT22;38546;48.170;11.724;2023-05-10T08:28:36;15.40;99.90
3488;DHT22;38546;48.170;11.724;2023-05-10T08:31:25;15.30;99.90
3488;DHT22;38546;48.170;11.724;2023-05-10T08:34:14;15.40;99.90
3488;DHT22;38546;48.170;11.724;2023-05-10T08:37:04;15.40;99.90
3488;DHT22;38546;48.170;11.724;2023-05-10T08:39:52;15.70;99.90
3488;DHT22;38546;48.170;11.724;2023-05-10T08:42:48;15.90;99.90
3488;DHT22;38546;48.170;11.724;2023-05-10T08:45:49;15.90;99.90
3488;DHT22;38546;48.170;11.724;2023-05-10T08:48:38;16.10;99.90
3488;DHT22;38546;48.170;11.724;2023-05-10T08:51:31;16.50;99.90
3488;DHT22;38546;48.170;11.724;2023-05-10T08:54:24;16.70;99.90
3488;DHT22;38546;48.170;11.724;2023-05-10T08:57:13;16.70;99.90
3488;DHT22;38546;48.170;11.724;2023-05-10T09:00:03;16.30;99.90
3488;DHT22;38546;48.170;11.724;2023-05-10T09:02:54;16.20;99.90
3488;DHT22;38546;48.170;11.724;2023-05-10T09:05:43;16.50;99.90
3488;DHT22;38546;48.170;11.724;2023-05-10T09:08:33;16.50;99.90
3488;DHT22;38546;48.170;11.724;2023-05-10T09:11:23;16.50;99.90
3488;DHT22;38546;48.170;11.724;2023-05-10T09:14:14;16.90;99.90
3488;DHT22;38546;48.170;11.724;2023-05-10T09:17:04;17.10;99.90
3488;DHT22;38546;48.170;11.724;2023-05-10T09:20:04;16.90;99.90
3488;DHT22;38546;48.170;11.724;2023-05-10T09:22:54;16.90;99.90
3488;DHT22;38546;48.170;11.724;2023-05-10T09:25:43;16.90;99.90
3488;DHT22;38546;48.170;11.724;2023-05-10T09:28:55;17.00;99.90
3488;DHT22;38546;48.170;11.724;2023-05-10T09:31:55;17.10;99.90
3488;DHT22;38546;48.170;11.724;2023-05-10T09:34:44;17.30;99.90
3488;DHT22;38546;48.170;11.724;2023-05-10T09:37:34;17.50;99.90
3488;DHT22;38546;48.170;11.724;2023-05-10T09:40:25;17.70;99.90
3488;DHT22;38546;48.170;11.724;2023-05-10T09:43:17;17.80;99.90
3488;DHT22;38546;48.170;11.724;2023-05-10T09:46:09;17.60;99.90
3488;DHT22;38546;48.170;11.724;2023-05-10T09:48:59;17.40;99.90
3488;DHT22;38546;48.170;11.724;2023-05-10T09:52:03;17.00;99.90
3488;DHT22;38546;48.170;11.724;2023-05-10T09:54:54;16.60;99.90
3488;DHT22;38546;48.170;11.724;2023-05-10T09:57:43;16.20;99.90
3488;DHT22;38546;48.170;11.724;2023-05-10T10:00:37;15.50;99.90
3488;DHT22;38546;48.170;11.724;2023-05-10T10:03:30;15.10;99.90
3488;DHT22;38546;48.170;11.724;2023-05-10T10:06:20;14.90;99.90
3488;DHT22;38546;48.170;11.724;2023-05-10T10:09:09;14.60;99.90
3488;DHT22;38546;48.170;11.724;2023-05-10T10:12:02;14.50;99.90
3488;DHT22;38546;48.170;11.724;2023-05-10T10:14:53;14.40;99.90
3488;DHT22;38546;48.170;11.724;2023-05-10T10:17:44;14.50;99.90
3488;DHT22;38546;48.170;11.724;2023-05-10T10:20:33;14.60;99.90
3488;DHT22;38546;48.170;11.724;2023-05-10T10:23:25;14.90;99.90
3488;DHT22;38546;48.170;11.724;2023-05-10T10:26:17;15.10;99.90
3488;DHT22;38546;48.170;11.724;2023-05-10T10:33:28;15.40;99.90
3488;DHT22;38546;48.170;11.724;2023-05-10T10:36:39;15.90;99.90
3488;DHT22;38546;48.170;11.724;2023-05-10T10:39:31;16.10;99.90
3488;DHT22;38546;48.170;11.724;2023-05-10T10:43:55;16.40;99.90
3488;DHT22;38546;48.170;11.724;2023-05-10T10:47:22;16.60;99.90
3488;DHT22;38546;48.170;11.724;2023-05-10T10:50:13;17.10;99.90
3488;DHT22;38546;48.170;11.724;2023-05-10T10:53:10;17.30;99.90
3488;DHT22;38546;48.170;11.724;2023-05-10T10:56:13;17.50;99.90
3488;DHT22;38546;48.170;11.724;2023-05-10T10:59:04;17.80;99.90
3488;DHT22;38546;48.170;11.724;2023-05-10T11:01:53;17.80;99.90
3488;DHT22;38546;48.170;11.724;2023-05-10T11:04:43;17.70;99.90
3488;DHT22;38546;48.170;11.724;2023-05-10T11:07:35;17.40;99.90
3488;DHT22;38546;48.170;11.724;2023-05-10T11:10:25;17.50;99.90
3488;DHT22;38546;48.170;11.724;2023-05-10T11:13:15;17.30;99.90
3488;DHT22;38546;48.170;11.724;2023-05-10T11:16:22;17.20;99.90
3488;DHT22;38546;48.170;11.724;2023-05-10T11:19:16;17.20;99.90
3488;DHT22;38546;48.170;11.724;2023-05-10T11:22:16;17.20;99.90
3488;DHT22;38546;48.170;11.724;2023-05-10T11:25:06;17.30;99.90
3488;DHT22;38546;48.170;11.724;2023-05-10T11:27:56;17.50;99.90
3488;DHT22;38546;48.170;11.724;2023-05-10T11:30:45;17.30;99.90
3488;DHT22;38546;48.170;11.724;2023-05-10T11:34:36;17.20;99.90
3488;DHT22;38546;48.170;11.724;2023-05-10T11:37:28;17.10;99.90
3488;DHT22;38546;48.170;11.724;2023-05-10T11:40:21;17.00;99.90
3488;DHT22;38546;48.170;11.724;2023-05-10T11:43:13;16.80;99.90
3488;DHT22;38546;48.170;11.724;2023-05-10T11:46:03;16.20;99.90
3488;DHT22;38546;48.170;11.724;2023-05-10T11:48:59;16.10;99.90
3488;DHT22;38546;48.170;11.724;2023-05-10T11:51:50;16.00;99.90
3488;DHT22;38546;48.170;11.724;2023-05-10T11:54:54;15.90;99.90
3488;DHT22;38546;48.170;11.724;2023-05-10T11:57:43;15.70;99.90
3488;DHT22;38546;48.170;11.724;2023-05-10T12:00:35;15.70;99.90
3488;DHT22;38546;48.170;11.724;2023-05-10T12:03:24;15.70;99.90
3488;DHT22;38546;48.170;11.724;2023-05-10T12:06:14;15.40;99.90
3488;DHT22;38546;48.170;11.724;2023-05-10T12:09:08;15.20;99.90
3488;DHT22;38546;48.170;11.724;2023-05-10T12:11:57;14.80;99.90
3488;DHT22;38546;48.170;11.724;2023-05-10T12:14:50;14.60;99.90
3488;DHT22;38546;48.170;11.724;2023-05-10T12:17:39;14.20;99.90
3488;DHT22;38546;48.170;11.724;2023-05-10T12:20:29;13.90;99.90
3488;DHT22;38546;48.170;11.724;2023-05-10T12:23:20;13.80;99.90
3488;DHT22;38546;48.170;11.724;2023-05-10T12:26:10;13.70;99.90
3488;DHT22;38546;48.170;11.724;2023-05-10T12:29:13;13.60;99.90
3488;DHT22;38546;48.170;11.724;2023-05-10T12:32:05;13.60;99.90
3488;DHT22;38546;48.170;11.724;2023-05-10T12:34:55;13.50;99.90
3488;DHT22;38546;48.170;11.724;2023-05-10T12:37:47;13.60;99.90
3488;DHT22;38546;48.170;11.724;2023-05-10T12:40:37;13.50;99.90
3488;DHT22;38546;48.170;11.724;2023-05-10T12:43:27;13.60;99.90
3488;DHT22;38546;48.170;11.724;2023-05-10T12:46:17;13.50;99.90
3488;DHT22;38546;48.170;11.724;2023-05-10T12:49:07;13.50;99.90
3488;DHT22;38546;48.170;11.724;2023-05-10T12:51:57;13.50;99.90
3488;DHT22;38546;48.170;11.724;2023-05-10T12:54:47;13.60;99.90
3488;DHT22;38546;48.170;11.724;2023-05-10T12:57:36;13.50;99.90
3488;DHT22;38546;48.170;11.724;2023-05-10T13:00:25;13.40;99.90
3488;DHT22;38546;48.170;11.724;2023-05-10T13:03:15;13.40;99.90
3488;DHT22;38546;48.170;11.724;2023-05-10T13:06:05;13.40;99.90
3488;DHT22;38546;48.170;11.724;2023-05-10T13:08:55;13.50;99.90
3488;DHT22;38546;48.170;11.724;2023-05-10T13:11:46;13.30;99.90
3488;DHT22;38546;48.170;11.724;2023-05-10T13:14:36;13.30;99.90
3488;DHT22;38546;48.170;11.724;2023-05-10T13:17:26;13.50;99.90
3488;DHT22;38546;48.170;11.724;2023-05-10T13:20:16;13.50;99.90
3488;DHT22;38546;48.170;11.724;2023-05-10T13:23:06;13.50;99.90
3488;DHT22;38546;48.170;11.724;2023-05-10T13:25:55;13.50;99.90
3488;DHT22;38546;48.170;11.724;2023-05-10T13:28:44;13.40;99.90
3488;DHT22;38546;48.170;11.724;2023-05-10T13:31:35;13.40;99.90
3488;DHT22;38546;48.170;11.724;2023-05-10T13:34:25;13.50;99.90
3488;DHT22;38546;48.170;11.724;2023-05-10T13:37:14;13.40;99.90
3488;DHT22;38546;48.170;11.724;2023-05-10T13:40:05;13.20;99.90
3488;DHT22;38546;48.170;11.724;2023-05-10T13:42:55;13.20;99.90
3488;DHT22;38546;48.170;11.724;2023-05-10T13:45:43;13.10;99.90
3488;DHT22;38546;48.170;11.724;2023-05-10T13:48:33;13.10;99.90
3488;DHT22;38546;48.170;11.724;2023-05-10T13:51:22;13.20;99.90
3488;DHT22;38546;48.170;11.724;2023-05-10T13:54:11;13.20;99.90
3488;DHT22;38546;48.170;11.724;2023-05-10T13:57:00;13.40;99.90
3488;DHT22;38546;48.170;11.724;2023-05-10T13:59:51;13.50;99.90
3488;DHT22;38546;48.170;11.724;2023-05-10T14:02:41;13.50;99.90
3488;DHT22;38546;48.170;11.724;2023-05-10T14:05:30;13.50;99.90
3488;DHT22;38546;48.170;11.724;2023-05-10T14:08:19;13.70;99.90
3488;DHT22;38546;48.170;11.724;2023-05-10T14:11:09;13.70;99.90
3488;DHT22;38546;48.170;11.724;2023-05-10T14:13:58;13.60;99.90
3488;DHT22;38546;48.170;11.724;2023-05-10T14:16:48;13.70;99.90
3488;DHT22;38546;48.170;11.724;2023-05-10T14:19:37;13.80;99.90
3488;DHT22;38546;48.170;11.724;2023-05-10T14:22:27;13.80;99.90
3488;DHT22;38546;48.170;11.724;2023-05-10T14:25:16;13.70;99.90
3488;DHT22;38546;48.170;11.724;2023-05-10T14:28:06;13.70;99.90
3488;DHT22;38546;48.170;11.724;2023-05-10T14:30:56;13.80;99.90
3488;DHT22;38546;48.170;11.724;2023-05-10T14:33:48;13.90;99.90
3488;DHT22;38546;48.170;11.724;2023-05-10T14:36:38;13.70;99.90
3488;DHT22;38546;48.170;11.724;2023-05-10T14:39:27;13.70;99.90
3488;DHT22;38546;48.170;11.724;2023-05-10T14:42:19;13.90;99.90
3488;DHT22;38546;48.170;11.724;2023-05-10T14:45:09;13.80;99.90
3488;DHT22;38546;48.170;11.724;2023-05-10T14:47:59;13.70;99.90
3488;DHT22;38546;48.170;11.724;2023-05-10T14:50:49;13.80;99.90
3488;DHT22;38546;48.170;11.724;2023-05-10T14:53:38;13.60;99.90
3488;DHT22;38546;48.170;11.724;2023-05-10T14:56:27;13.60;99.90
3488;DHT22;38546;48.170;11.724;2023-05-10T14:59:17;13.50;99.90
3488;DHT22;38546;48.170;11.724;2023-05-10T15:02:06;13.40;99.90
3488;DHT22;38546;48.170;11.724;2023-05-10T15:04:57;13.30;99.90
3488;DHT22;38546;48.170;11.724;2023-05-10T15:07:46;13.30;99.90
3488;DHT22;38546;48.170;11.724;2023-05-10T15:10:35;13.10;99.90
3488;DHT22;38546;48.170;11.724;2023-05-10T15:13:25;13.00;99.90
3488;DHT22;38546;48.170;11.724;2023-05-10T15:16:15;13.00;99.90
3488;DHT22;38546;48.170;11.724;2023-05-10T15:19:04;13.00;99.90
3488;DHT22;38546;48.170;11.724;2023-05-10T15:21:54;13.00;99.90
3488;DHT22;38546;48.170;11.724;2023-05-10T15:24:44;12.90;99.90
3488;DHT22;38546;48.170;11.724;2023-05-10T15:27:33;12.90;99.90
3488;DHT22;38546;48.170;11.724;2023-05-10T15:30:22;12.70;99.90
3488;DHT22;38546;48.170;11.724;2023-05-10T15:33:12;12.80;99.90
3488;DHT22;38546;48.170;11.724;2023-05-10T15:36:01;12.70;99.90
3488;DHT22;38546;48.170;11.724;2023-05-10T15:38:50;12.60;99.90
3488;DHT22;38546;48.170;11.724;2023-05-10T15:41:39;12.50;99.90
3488;DHT22;38546;48.170;11.724;2023-05-10T15:44:29;12.40;99.90
3488;DHT22;38546;48.170;11.724;2023-05-10T15:47:18;12.50;99.90
3488;DHT22;38546;48.170;11.724;2023-05-10T15:50:08;12.60;99.90
3488;DHT22;38546;48.170;11.724;2023-05-10T15:52:58;12.60;99.90
3488;DHT22;38546;48.170;11.724;2023-05-10T15:55:47;12.60;99.90
3488;DHT22;38546;48.170;11.724;2023-05-10T15:58:40;12.50;99.90
3488;DHT22;38546;48.170;11.724;2023-05-10T16:01:30;12.60;99.90
3488;DHT22;38546;48.170;11.724;2023-05-10T16:04:20;12.50;99.90
3488;DHT22;38546;48.170;11.724;2023-05-10T16:07:09;12.40;99.90
3488;DHT22;38546;48.170;11.724;2023-05-10T16:09:58;12.50;99.90
3488;DHT22;38546;48.170;11.724;2023-05-10T16:12:55;12.40;99.90
3488;DHT22;38546;48.170;11.724;2023-05-10T16:15:44;12.50;99.90
3488;DHT22;38546;48.170;11.724;2023-05-10T16:18:34;12.50;99.90
3488;DHT22;38546;48.170;11.724;2023-05-10T16:21:23;12.60;99.90
3488;DHT22;38546;48.170;11.724;2023-05-10T16:24:12;12.50;99.90
3488;DHT22;38546;48.170;11.724;2023-05-10T16:27:02;12.60;99.90
3488;DHT22;38546;48.170;11.724;2023-05-10T16:29:51;12.40;99.90
3488;DHT22;38546;48.170;11.724;2023-05-10T16:32:40;12.30;99.90
3488;DHT22;38546;48.170;11.724;2023-05-10T16:35:29;12.20;99.90
3488;DHT22;38546;48.170;11.724;2023-05-10T16:38:18;12.30;99.90
3488;DHT22;38546;48.170;11.724;2023-05-10T16:41:09;12.20;99.90
3488;DHT22;38546;48.170;11.724;2023-05-10T16:43:58;12.10;99.90
3488;DHT22;38546;48.170;11.724;2023-05-10T16:46:48;12.20;99.90
3488;DHT22;38546;48.170;11.724;2023-05-10T16:49:37;12.10;99.90
3488;DHT22;38546;48.170;11.724;2023-05-10T16:52:26;12.00;99.90
3488;DHT22;38546;48.170;11.724;2023-05-10T16:55:15;12.00;99.90
3488;DHT22;38546;48.170;11.724;2023-05-10T16:58:04;12.00;99.90
3488;DHT22;38546;48.170;11.724;2023-05-10T17:00:53;11.90;99.90
3488;DHT22;38546;48.170;11.724;2023-05-10T17:03:43;11.80;99.90
3488;DHT22;38546;48.170;11.724;2023-05-10T17:06:32;11.90;99.90
3488;DHT22;38546;48.170;11.724;2023-05-10T17:09:23;12.00;99.90
3488;DHT22;38546;48.170;11.724;2023-05-10T17:12:12;11.80;99.90
3488;DHT22;38546;48.170;11.724;2023-05-10T17:15:02;11.80;99.90
3488;DHT22;38546;48.170;11.724;2023-05-10T17:17:51;11.70;99.90
3488;DHT22;38546;48.170;11.724;2023-05-10T17:20:42;11.60;99.90
3488;DHT22;38546;48.170;11.724;2023-05-10T17:23:33;11.70;99.90
3488;DHT22;38546;48.170;11.724;2023-05-10T17:26:21;11.60;99.90
3488;DHT22;38546;48.170;11.724;2023-05-10T17:29:10;11.60;99.90
3488;DHT22;38546;48.170;11.724;2023-05-10T17:32:01;11.60;99.90
3488;DHT22;38546;48.170;11.724;2023-05-10T17:34:51;11.60;99.90
3488;DHT22;38546;48.170;11.724;2023-05-10T17:37:40;11.70;99.90
3488;DHT22;38546;48.170;11.724;2023-05-10T17:40:29;11.70;99.90
3488;DHT22;38546;48.170;11.724;2023-05-10T17:43:19;11.80;99.90
3488;DHT22;38546;48.170;11.724;2023-05-10T17:46:08;11.70;99.90
3488;DHT22;38546;48.170;11.724;2023-05-10T17:48:58;11.70;99.90
3488;DHT22;38546;48.170;11.724;2023-05-10T17:51:46;11.50;99.90
3488;DHT22;38546;48.170;11.724;2023-05-10T17:54:36;11.30;99.90
3488;DHT22;38546;48.170;11.724;2023-05-10T17:57:25;11.20;99.90
3488;DHT22;38546;48.170;11.724;2023-05-10T18:00:15;11.30;99.90
3488;DHT22;38546;48.170;11.724;2023-05-10T18:03:04;11.30;99.90
3488;DHT22;38546;48.170;11.724;2023-05-10T18:05:54;11.20;99.90
3488;DHT22;38546;48.170;11.724;2023-05-10T18:08:44;11.30;99.90
3488;DHT22;38546;48.170;11.724;2023-05-10T18:11:36;11.10;99.90
3488;DHT22;38546;48.170;11.724;2023-05-10T18:14:26;11.10;99.90